Time;durP1;ratioP1;P1;durP2;ratioP2;P2;SDS_P1;SDS_P2;PMS_P1;PMS_P2;Temp;Humidity;BMP_temperature;BMP_pressure;BME280_temperature;BME280_humidity;BME280_pressure;Samples;Min_cycle;Max_cycle;Signal;HPM_P1;HPM_P2
2023/07/07 00:02:14;;;;;;;4.32;1.70;;;16.50;99.90;;;;;;5016512;28;20046;-59
2023/07/07 00:04:41;;;;;;;4.13;2.05;;;16.50;99.90;;;;;;5037692;28;20503;-59
2023/07/07 00:07:08;;;;;;;2.47;1.50;;;16.50;99.90;;;;;;5035987;28;20042;-61
2023/07/07 00:09:35;;;;;;;3.53;1.75;;;16.50;99.90;;;;;;5038558;28;20091;-60
2023/07/07 00:12:01;;;;;;;4.25;1.63;;;16.50;99.90;;;;;;5038742;28;20115;-59
2023/07/07 00:14:28;;;;;;;6.18;2.05;;;16.40;99.90;;;;;;5038395;28;20083;-61
2023/07/07 00:17:01;;;;;;;3.38;2.08;;;16.40;99.90;;;;;;5039680;28;20049;-59
2023/07/07 00:19:32;;;;;;;4.00;1.95;;;16.40;99.90;;;;;;5036268;28;20054;-60
2023/07/07 00:22:05;;;;;;;2.13;1.38;;;16.30;99.90;;;;;;5031456;28;20137;-60
2023/07/07 00:24:33;;;;;;;5.45;1.92;;;16.30;99.90;;;;;;5044537;28;20211;-60
2023/07/07 00:27:00;;;;;;;7.40;2.08;;;16.30;99.90;;;;;;5046454;28;20510;-60
2023/07/07 00:29:27;;;;;;;3.70;1.85;;;16.30;99.90;;;;;;5043900;28;20522;-60
2023/07/07 00:31:54;;;;;;;2.70;1.88;;;16.30;99.90;;;;;;5028601;28;20042;-59
2023/07/07 00:34:21;;;;;;;4.88;2.70;;;16.30;99.90;;;;;;5037587;28;20052;-60
2023/07/07 00:36:48;;;;;;;3.85;1.90;;;16.20;99.90;;;;;;5045153;28;20052;-61
2023/07/07 00:39:14;;;;;;;5.35;1.80;;;16.30;99.90;;;;;;5046517;28;20045;-61
2023/07/07 00:41:41;;;;;;;5.80;1.88;;;16.20;99.90;;;;;;5041555;28;20048;-60
2023/07/07 00:44:10;;;;;;;6.25;1.98;;;16.20;99.90;;;;;;5032927;28;20050;-60
2023/07/07 00:46:37;;;;;;;4.97;1.70;;;16.20;99.90;;;;;;5037719;28;20338;-60
2023/07/07 00:49:15;;;;;;;6.47;2.10;;;16.20;99.90;;;;;;5044766;28;20093;-60
2023/07/07 00:51:46;;;;;;;4.82;2.28;;;16.10;99.90;;;;;;5015469;28;20052;-59
2023/07/07 00:54:15;;;;;;;3.75;1.90;;;16.00;99.90;;;;;;5036546;28;20048;-60
2023/07/07 00:56:50;;;;;;;4.15;2.17;;;16.00;99.90;;;;;;5039467;28;20057;-60
2023/07/07 00:59:20;;;;;;;2.85;1.90;;;16.00;99.90;;;;;;5030691;28;20523;-59
2023/07/07 01:01:49;;;;;;;3.28;1.83;;;16.00;99.90;;;;;;5021133;28;20049;-59
2023/07/07 01:04:16;;;;;;;5.68;2.38;;;16.00;99.90;;;;;;5025031;28;20141;-60
2023/07/07 01:06:47;;;;;;;6.82;1.65;;;15.90;99.90;;;;;;5037401;28;20446;-60
2023/07/07 01:09:14;;;;;;;3.50;1.83;;;15.90;99.90;;;;;;5031584;28;20052;-60
2023/07/07 01:11:41;;;;;;;3.67;2.17;;;15.90;99.90;;;;;;5029341;28;20041;-61
2023/07/07 01:14:11;;;;;;;5.43;2.17;;;15.90;99.90;;;;;;5021653;28;20048;-60
2023/07/07 01:16:52;;;;;;;4.57;1.85;;;15.80;99.90;;;;;;5027033;28;20080;-60
2023/07/07 01:19:49;;;;;;;4.15;1.92;;;15.80;99.90;;;;;;5041955;28;20141;-60
2023/07/07 01:22:35;;;;;;;4.80;2.25;;;15.70;99.90;;;;;;5043433;28;20103;-60
2023/07/07 01:25:23;;;;;;;4.43;2.05;;;15.70;99.90;;;;;;5043239;28;20051;-61
2023/07/07 01:27:53;;;;;;;3.25;1.85;;;15.60;99.90;;;;;;5047011;28;20048;-61
2023/07/07 01:30:44;;;;;;;4.10;2.42;;;15.60;99.90;;;;;;5033323;28;20056;-60
2023/07/07 01:33:16;;;;;;;3.00;2.15;;;15.60;99.90;;;;;;5040646;28;20099;-60
2023/07/07 01:35:43;;;;;;;8.38;2.20;;;15.60;99.90;;;;;;5012555;28;20049;-60
2023/07/07 01:38:29;;;;;;;5.00;2.10;;;15.50;99.90;;;;;;5039186;28;20044;-59
2023/07/07 01:41:03;;;;;;;4.03;2.22;;;15.50;99.90;;;;;;5032472;28;21232;-62
2023/07/07 01:43:56;;;;;;;4.25;1.92;;;15.40;99.90;;;;;;5020033;28;20511;-58
2023/07/07 01:46:26;;;;;;;6.43;2.13;;;15.40;99.90;;;;;;5022280;28;20110;-61
2023/07/07 01:48:57;;;;;;;5.57;2.50;;;15.30;99.90;;;;;;4674618;28;10000148;-60
2023/07/07 01:51:27;;;;;;;4.72;2.47;;;15.30;99.90;;;;;;5028872;28;20091;-60
2023/07/07 01:53:54;;;;;;;5.88;2.38;;;15.30;99.90;;;;;;4990434;28;20041;-59
2023/07/07 01:56:23;;;;;;;4.22;2.25;;;15.20;99.90;;;;;;5031846;28;20531;-60
2023/07/07 01:58:50;;;;;;;5.88;2.10;;;15.10;99.90;;;;;;5036920;28;20049;-60
2023/07/07 02:01:18;;;;;;;7.22;2.20;;;15.10;99.90;;;;;;5043103;28;20463;-60
2023/07/07 02:03:45;;;;;;;4.78;2.20;;;15.10;99.90;;;;;;5007143;28;20048;-60
2023/07/07 02:06:11;;;;;;;7.68;2.22;;;15.20;99.90;;;;;;5047732;28;20045;-59
2023/07/07 02:08:38;;;;;;;5.78;2.70;;;15.10;99.90;;;;;;5036803;28;20046;-59
2023/07/07 02:11:05;;;;;;;4.40;2.35;;;15.20;99.90;;;;;;5037303;28;20042;-59
2023/07/07 02:13:34;;;;;;;4.20;2.03;;;15.10;99.90;;;;;;5037991;28;20049;-60
2023/07/07 02:16:01;;;;;;;8.10;2.20;;;15.10;99.90;;;;;;5036788;28;20048;-60
2023/07/07 02:18:27;;;;;;;4.60;2.33;;;15.10;99.90;;;;;;5038895;28;20488;-59
2023/07/07 02:20:54;;;;;;;8.95;2.20;;;15.10;99.90;;;;;;5039144;28;20072;-60
2023/07/07 02:23:22;;;;;;;6.68;2.45;;;15.10;99.90;;;;;;5034777;28;20117;-60
2023/07/07 02:25:48;;;;;;;4.75;2.78;;;15.10;99.90;;;;;;5036008;28;20531;-59
2023/07/07 02:28:15;;;;;;;6.07;2.28;;;15.10;99.90;;;;;;5041883;28;20503;-59
2023/07/07 02:30:42;;;;;;;8.45;2.65;;;15.10;99.90;;;;;;5040235;28;20045;-59
2023/07/07 02:33:09;;;;;;;7.35;2.35;;;15.10;99.90;;;;;;5031485;28;20051;-60
2023/07/07 02:35:36;;;;;;;4.40;1.85;;;15.20;99.90;;;;;;5035515;28;20045;-59
2023/07/07 02:38:02;;;;;;;4.05;2.05;;;15.10;99.90;;;;;;5044297;28;20125;-59
2023/07/07 02:40:29;;;;;;;3.58;2.22;;;15.10;99.90;;;;;;5039505;28;20049;-59
2023/07/07 02:42:56;;;;;;;4.35;2.20;;;15.00;99.90;;;;;;5031811;28;20548;-59
2023/07/07 02:45:23;;;;;;;4.60;2.63;;;15.10;99.90;;;;;;5039913;28;20041;-59
2023/07/07 02:47:50;;;;;;;7.45;2.17;;;15.00;99.90;;;;;;5047230;28;20049;-59
2023/07/07 02:50:17;;;;;;;6.00;1.80;;;15.00;99.90;;;;;;5037536;28;20500;-66
2023/07/07 02:52:44;;;;;;;4.05;2.22;;;15.00;99.90;;;;;;5041032;28;20507;-59
2023/07/07 02:55:11;;;;;;;3.35;2.00;;;15.00;99.90;;;;;;5040833;28;20061;-59
2023/07/07 02:57:38;;;;;;;3.70;2.00;;;15.00;99.90;;;;;;5029039;28;20523;-59
2023/07/07 03:00:09;;;;;;;3.22;2.17;;;15.00;99.90;;;;;;5041060;28;20095;-59
2023/07/07 03:02:36;;;;;;;5.32;2.17;;;15.00;99.90;;;;;;5036896;28;20064;-59
2023/07/07 03:05:03;;;;;;;5.65;2.35;;;15.00;99.90;;;;;;5038364;28;20079;-60
2023/07/07 03:07:29;;;;;;;6.75;2.22;;;14.90;99.90;;;;;;5038656;28;20100;-62
2023/07/07 03:09:56;;;;;;;7.05;1.98;;;14.90;99.90;;;;;;5034377;28;20042;-60
2023/07/07 03:12:23;;;;;;;5.30;2.40;;;14.90;99.90;;;;;;5038855;28;20056;-60
2023/07/07 03:14:54;;;;;;;6.38;2.10;;;14.80;99.90;;;;;;5032393;28;20064;-60
2023/07/07 03:17:21;;;;;;;4.05;2.05;;;14.80;99.90;;;;;;5034405;28;20057;-59
2023/07/07 03:19:48;;;;;;;7.03;2.30;;;14.80;99.90;;;;;;5043615;28;20102;-59
2023/07/07 03:22:15;;;;;;;3.92;2.03;;;14.80;99.90;;;;;;5039656;28;20541;-59
2023/07/07 03:24:42;;;;;;;4.93;2.00;;;14.80;99.90;;;;;;5039271;28;20732;-60
2023/07/07 03:27:08;;;;;;;7.53;2.30;;;14.80;99.90;;;;;;5036267;28;20457;-59
2023/07/07 03:29:35;;;;;;;3.88;2.15;;;14.70;99.90;;;;;;5046695;28;20448;-60
2023/07/07 03:32:02;;;;;;;6.22;2.30;;;14.70;99.90;;;;;;5042683;28;20045;-59
2023/07/07 03:34:29;;;;;;;7.70;2.45;;;14.80;99.90;;;;;;5029397;28;20049;-59
2023/07/07 03:36:56;;;;;;;4.70;2.08;;;14.80;99.90;;;;;;5041734;28;20045;-59
2023/07/07 03:39:22;;;;;;;4.80;2.95;;;14.70;99.90;;;;;;5036658;28;20463;-59
2023/07/07 03:41:49;;;;;;;3.85;1.80;;;14.70;99.90;;;;;;5040379;28;20455;-59
2023/07/07 03:44:16;;;;;;;5.78;2.55;;;14.70;99.90;;;;;;5042501;28;20045;-59
2023/07/07 03:46:43;;;;;;;7.93;2.22;;;14.70;99.90;;;;;;5038853;28;20542;-59
2023/07/07 03:49:10;;;;;;;2.50;1.73;;;14.60;99.90;;;;;;5041408;28;20453;-59
2023/07/07 03:51:37;;;;;;;4.95;1.65;;;14.40;99.90;;;;;;5038680;28;20497;-59
2023/07/07 03:54:04;;;;;;;11.00;2.30;;;14.50;99.90;;;;;;5038847;28;20518;-59
2023/07/07 03:56:31;;;;;;;6.78;2.70;;;14.50;99.90;;;;;;5042529;28;20111;-61
2023/07/07 03:58:58;;;;;;;5.47;2.28;;;14.40;99.90;;;;;;5038578;28;20041;-59
2023/07/07 04:01:25;;;;;;;3.92;2.15;;;14.30;99.90;;;;;;5044347;28;20053;-59
2023/07/07 04:03:52;;;;;;;5.28;2.47;;;14.20;99.90;;;;;;5045703;28;20404;-59
2023/07/07 04:06:19;;;;;;;8.15;2.97;;;14.20;99.90;;;;;;5040075;28;20455;-59
2023/07/07 04:08:46;;;;;;;4.43;2.13;;;14.30;99.90;;;;;;5042317;28;20110;-60
2023/07/07 04:11:16;;;;;;;3.85;1.90;;;14.30;99.90;;;;;;5032605;28;20041;-61
2023/07/07 04:13:43;;;;;;;5.30;2.25;;;14.30;99.90;;;;;;5028957;28;20107;-59
2023/07/07 04:16:22;;;;;;;10.27;2.47;;;14.30;99.90;;;;;;5041805;28;20451;-59
2023/07/07 04:18:50;;;;;;;4.97;2.35;;;14.30;99.90;;;;;;5037916;28;20053;-59
2023/07/07 04:21:19;;;;;;;10.18;2.50;;;14.30;99.90;;;;;;5045364;28;20046;-58
2023/07/07 04:23:47;;;;;;;2.83;2.00;;;14.30;99.90;;;;;;5037694;28;20046;-61
2023/07/07 04:26:14;;;;;;;9.65;2.50;;;14.30;99.90;;;;;;5044938;28;20049;-60
2023/07/07 04:28:41;;;;;;;5.93;2.50;;;14.30;99.90;;;;;;5040214;28;20044;-60
2023/07/07 04:31:09;;;;;;;5.10;2.08;;;14.40;99.90;;;;;;5035835;28;20053;-60
2023/07/07 04:33:36;;;;;;;3.22;1.90;;;14.40;99.90;;;;;;5039801;28;20076;-60
2023/07/07 04:36:05;;;;;;;3.60;2.10;;;14.40;99.90;;;;;;5032071;28;20050;-59
2023/07/07 04:38:32;;;;;;;5.63;2.40;;;14.40;99.90;;;;;;5038991;28;20064;-59
2023/07/07 04:41:10;;;;;;;6.28;2.67;;;14.40;99.90;;;;;;5039438;28;20052;-58
2023/07/07 04:43:42;;;;;;;3.63;1.90;;;14.40;99.90;;;;;;5038323;28;20045;-61
2023/07/07 04:46:10;;;;;;;4.60;2.35;;;14.40;99.90;;;;;;5039322;28;20041;-59
2023/07/07 04:48:37;;;;;;;5.97;2.05;;;14.30;99.90;;;;;;5038730;28;20049;-60
2023/07/07 04:51:06;;;;;;;5.00;2.10;;;14.40;99.90;;;;;;5031772;28;20499;-60
2023/07/07 04:53:33;;;;;;;4.70;2.20;;;14.40;99.90;;;;;;5040817;28;20050;-60
2023/07/07 04:56:04;;;;;;;3.97;2.55;;;14.50;99.90;;;;;;5046618;28;20045;-60
2023/07/07 04:58:31;;;;;;;5.15;2.15;;;14.50;99.90;;;;;;5031007;28;20051;-59
2023/07/07 05:01:12;;;;;;;6.32;2.15;;;14.50;99.90;;;;;;5037093;28;20041;-59
2023/07/07 05:03:40;;;;;;;6.40;2.25;;;14.50;99.90;;;;;;5042193;28;20419;-60
2023/07/07 05:06:07;;;;;;;5.50;2.83;;;14.50;99.90;;;;;;5049526;28;20482;-57
2023/07/07 05:08:36;;;;;;;5.18;2.00;;;14.60;99.90;;;;;;5043947;28;20559;-59
2023/07/07 05:11:03;;;;;;;7.57;2.35;;;14.50;99.90;;;;;;5036327;28;20042;-59
2023/07/07 05:13:31;;;;;;;4.47;3.28;;;14.60;99.90;;;;;;5045361;28;20045;-59
2023/07/07 05:16:09;;;;;;;7.32;2.78;;;14.60;99.90;;;;;;5034345;28;20111;-60
2023/07/07 05:18:36;;;;;;;7.68;2.97;;;14.70;99.90;;;;;;5028318;28;20103;-59
2023/07/07 05:21:03;;;;;;;12.55;3.03;;;14.70;99.90;;;;;;5036789;28;20100;-59
2023/07/07 05:23:32;;;;;;;8.57;3.20;;;14.80;99.90;;;;;;5046532;28;20048;-59
2023/07/07 05:25:59;;;;;;;12.45;2.85;;;14.80;99.90;;;;;;5029169;28;20041;-60
2023/07/07 05:28:26;;;;;;;4.72;2.60;;;14.90;99.90;;;;;;5046272;28;20060;-60
2023/07/07 05:30:53;;;;;;;6.85;2.22;;;15.00;99.90;;;;;;5039699;28;20668;-60
2023/07/07 05:33:20;;;;;;;7.18;2.10;;;15.10;99.90;;;;;;5033099;28;20053;-59
2023/07/07 05:35:47;;;;;;;9.20;3.13;;;15.10;99.90;;;;;;5039076;28;20049;-60
2023/07/07 05:38:16;;;;;;;7.63;2.53;;;15.20;99.90;;;;;;5047700;28;20598;-59
2023/07/07 05:40:43;;;;;;;5.25;2.78;;;15.20;99.90;;;;;;5037626;28;20053;-59
2023/07/07 05:43:10;;;;;;;7.63;2.65;;;15.30;99.90;;;;;;5037414;28;20057;-59
2023/07/07 05:45:37;;;;;;;7.53;2.38;;;15.30;99.90;;;;;;5038175;28;20105;-59
2023/07/07 05:48:04;;;;;;;11.27;3.13;;;15.40;99.90;;;;;;5037278;28;20407;-59
2023/07/07 05:50:32;;;;;;;9.38;3.35;;;15.50;99.90;;;;;;5039349;28;20662;-61
2023/07/07 05:52:59;;;;;;;8.35;3.45;;;15.50;99.90;;;;;;5036831;28;20294;-60
2023/07/07 05:55:30;;;;;;;7.25;2.70;;;15.60;99.90;;;;;;4677131;28;9999843;-59
2023/07/07 05:57:57;;;;;;;11.00;3.38;;;15.60;99.90;;;;;;5016633;28;20067;-59
2023/07/07 06:00:25;;;;;;;7.05;2.60;;;15.70;99.90;;;;;;5038439;28;20057;-60
2023/07/07 06:02:51;;;;;;;6.57;2.83;;;15.80;99.90;;;;;;5036730;28;20049;-60
2023/07/07 06:05:18;;;;;;;6.30;2.92;;;15.80;99.90;;;;;;5033014;28;20337;-60
2023/07/07 06:07:46;;;;;;;10.07;3.00;;;15.90;99.90;;;;;;5025589;28;20404;-59
2023/07/07 06:10:13;;;;;;;8.90;3.08;;;16.00;99.90;;;;;;5031987;28;20574;-61
2023/07/07 06:12:39;;;;;;;6.50;2.35;;;16.00;99.90;;;;;;5032226;28;20049;-60
2023/07/07 06:15:07;;;;;;;8.38;2.60;;;16.10;99.90;;;;;;5039647;28;20045;-60
2023/07/07 06:17:34;;;;;;;8.63;2.72;;;16.20;99.90;;;;;;5035472;28;20041;-60
2023/07/07 06:20:01;;;;;;;8.00;2.60;;;16.20;99.90;;;;;;5037858;28;20404;-59
2023/07/07 06:22:27;;;;;;;7.32;3.13;;;16.30;99.90;;;;;;5033424;28;20061;-60
2023/07/07 06:24:54;;;;;;;9.77;3.00;;;16.40;99.90;;;;;;5035279;28;20504;-59
2023/07/07 06:27:21;;;;;;;5.13;2.55;;;16.40;99.90;;;;;;5019054;28;20056;-59
2023/07/07 06:29:49;;;;;;;5.10;2.40;;;16.50;99.90;;;;;;5035028;28;20077;-58
2023/07/07 06:32:16;;;;;;;10.07;2.95;;;16.60;99.90;;;;;;5033890;28;20045;-58
2023/07/07 06:34:43;;;;;;;12.90;3.13;;;16.70;99.90;;;;;;5033843;28;20091;-58
2023/07/07 06:37:10;;;;;;;9.43;2.70;;;16.80;99.90;;;;;;5036711;28;20102;-59
2023/07/07 06:39:36;;;;;;;14.45;3.70;;;16.80;99.90;;;;;;5036311;28;20057;-58
2023/07/07 06:42:03;;;;;;;11.02;3.17;;;17.00;99.90;;;;;;5030756;28;20068;-58
2023/07/07 06:44:32;;;;;;;15.88;3.65;;;17.10;99.90;;;;;;5035221;28;20058;-54
2023/07/07 06:46:59;;;;;;;12.98;3.60;;;17.10;99.90;;;;;;5032270;28;20049;-56
2023/07/07 06:49:26;;;;;;;15.23;3.15;;;17.30;99.90;;;;;;5022905;28;20085;-58
2023/07/07 06:51:53;;;;;;;12.18;3.15;;;17.30;99.90;;;;;;5031292;28;20042;-57
2023/07/07 06:54:20;;;;;;;13.02;3.78;;;17.40;99.90;;;;;;5040427;28;20064;-57
2023/07/07 06:56:47;;;;;;;9.20;3.10;;;17.50;99.90;;;;;;5040714;28;20069;-56
2023/07/07 06:59:14;;;;;;;10.00;2.90;;;17.50;99.90;;;;;;5036236;28;20049;-57
2023/07/07 07:01:40;;;;;;;10.27;3.13;;;17.60;99.90;;;;;;5035603;28;20038;-56
2023/07/07 07:04:07;;;;;;;14.07;4.03;;;17.60;99.90;;;;;;5038828;28;20048;-57
2023/07/07 07:06:34;;;;;;;12.25;4.03;;;17.70;99.90;;;;;;5031865;28;20183;-57
2023/07/07 07:09:01;;;;;;;5.97;2.75;;;17.80;99.90;;;;;;5038007;28;20586;-59
2023/07/07 07:11:28;;;;;;;14.88;3.13;;;17.80;99.90;;;;;;5033584;28;20052;-58
2023/07/07 07:13:55;;;;;;;14.25;4.10;;;17.90;99.90;;;;;;5037442;28;20049;-59
2023/07/07 07:16:21;;;;;;;24.10;5.43;;;17.90;99.90;;;;;;5039264;28;20136;-58
2023/07/07 07:18:48;;;;;;;7.10;2.78;;;18.00;99.90;;;;;;5038020;28;20051;-58
2023/07/07 07:21:15;;;;;;;13.93;3.70;;;18.10;99.90;;;;;;5037368;28;20188;-57
2023/07/07 07:23:42;;;;;;;12.13;3.35;;;18.20;99.90;;;;;;5038088;28;20048;-58
2023/07/07 07:26:09;;;;;;;20.42;4.47;;;18.20;99.90;;;;;;5020859;28;21028;-57
2023/07/07 07:28:36;;;;;;;9.38;3.15;;;18.30;99.90;;;;;;5034789;28;20045;-58
2023/07/07 07:31:02;;;;;;;25.02;4.93;;;18.40;99.90;;;;;;5037366;28;20045;-57
2023/07/07 07:33:31;;;;;;;11.80;3.85;;;18.50;99.90;;;;;;5038370;28;20095;-57
2023/07/07 07:35:57;;;;;;;9.07;2.97;;;18.60;99.90;;;;;;5036169;28;20064;-58
2023/07/07 07:38:24;;;;;;;10.25;3.38;;;18.60;99.90;;;;;;5041590;28;20048;-57
2023/07/07 07:40:52;;;;;;;8.25;2.92;;;18.70;99.90;;;;;;5039679;28;20111;-58
2023/07/07 07:43:20;;;;;;;6.45;2.97;;;18.70;99.90;;;;;;5036408;28;20053;-57
2023/07/07 07:45:47;;;;;;;9.57;3.30;;;18.80;99.90;;;;;;5038762;28;20049;-57
2023/07/07 07:48:14;;;;;;;10.52;3.50;;;18.80;99.90;;;;;;5043265;28;20045;-58
2023/07/07 07:50:40;;;;;;;11.30;2.90;;;18.90;99.90;;;;;;5039353;28;20094;-56
2023/07/07 07:53:07;;;;;;;5.97;2.53;;;19.00;99.90;;;;;;5030660;28;20136;-57
2023/07/07 07:55:34;;;;;;;4.97;2.53;;;19.00;99.90;;;;;;5018437;28;20065;-58
2023/07/07 07:58:01;;;;;;;9.85;2.80;;;19.00;99.90;;;;;;5042323;28;20045;-59
2023/07/07 08:00:28;;;;;;;8.13;2.42;;;19.10;99.90;;;;;;5034193;28;20083;-57
2023/07/07 08:02:55;;;;;;;11.60;2.88;;;19.20;99.90;;;;;;5015780;28;20058;-56
2023/07/07 08:05:22;;;;;;;11.23;3.65;;;19.30;99.90;;;;;;5037225;28;20048;-56
2023/07/07 08:07:49;;;;;;;7.40;2.58;;;19.40;99.90;;;;;;5040457;28;20052;-55
2023/07/07 08:10:16;;;;;;;11.02;3.42;;;19.40;99.90;;;;;;5040007;28;20060;-57
2023/07/07 08:12:43;;;;;;;9.65;2.67;;;19.40;99.90;;;;;;5035430;28;20064;-57
2023/07/07 08:15:11;;;;;;;5.65;3.08;;;19.50;99.90;;;;;;5039574;28;20057;-56
2023/07/07 08:17:37;;;;;;;11.95;3.22;;;19.60;99.90;;;;;;5043708;28;20462;-57
2023/07/07 08:20:05;;;;;;;12.43;3.85;;;19.70;99.90;;;;;;5041846;28;20088;-57
2023/07/07 08:22:32;;;;;;;5.43;2.45;;;19.90;99.90;;;;;;5033984;28;20056;-57
2023/07/07 08:24:59;;;;;;;7.80;3.03;;;20.00;99.90;;;;;;5033745;28;20075;-57
2023/07/07 08:27:26;;;;;;;8.02;3.25;;;20.00;99.90;;;;;;5038459;28;20068;-57
2023/07/07 08:29:56;;;;;;;9.35;3.25;;;20.10;99.90;;;;;;5035574;28;20056;-57
2023/07/07 08:32:23;;;;;;;14.05;3.55;;;20.20;99.90;;;;;;5033354;28;20060;-57
2023/07/07 08:34:51;;;;;;;8.45;2.63;;;20.30;99.90;;;;;;5038751;28;20053;-57
2023/07/07 08:37:21;;;;;;;6.45;2.92;;;20.40;99.90;;;;;;5032796;28;20486;-55
2023/07/07 08:39:49;;;;;;;8.60;3.00;;;20.40;99.90;;;;;;5039708;28;20053;-57
2023/07/07 08:42:37;;;;;;;12.70;3.80;;;20.40;99.90;;;;;;5034207;28;20135;-56
2023/07/07 08:45:25;;;;;;;4.70;2.30;;;20.50;99.90;;;;;;5029136;28;20127;-57
2023/07/07 08:48:13;;;;;;;8.27;3.30;;;20.60;99.90;;;;;;5030496;28;20069;-56
2023/07/07 08:50:51;;;;;;;15.57;3.17;;;20.60;99.90;;;;;;5029816;28;20064;-58
2023/07/07 08:53:33;;;;;;;5.65;2.92;;;20.70;99.90;;;;;;5000347;28;20552;-55
2023/07/07 08:56:06;;;;;;;6.47;2.55;;;20.80;99.90;;;;;;5043140;28;20518;-58
2023/07/07 08:58:45;;;;;;;4.53;2.50;;;20.80;99.90;;;;;;5041241;28;20060;-57
2023/07/07 09:01:33;;;;;;;11.85;3.03;;;21.00;99.90;;;;;;5003282;28;20041;-58
2023/07/07 09:04:40;;;;;;;7.22;3.03;;;21.10;99.90;;;;;;5036471;28;20041;-56
2023/07/07 09:07:39;;;;;;;12.05;4.78;;;21.10;99.90;;;;;;5020765;28;20045;-58
2023/07/07 09:10:18;;;;;;;6.45;3.05;;;21.20;99.90;;;;;;5028854;28;20045;-58
2023/07/07 09:12:47;;;;;;;10.63;3.45;;;21.40;99.90;;;;;;5037277;28;20056;-58
2023/07/07 09:15:25;;;;;;;14.63;4.07;;;21.50;99.90;;;;;;5033324;28;20050;-59
2023/07/07 09:17:55;;;;;;;9.30;3.42;;;21.60;99.90;;;;;;5039311;28;20050;-58
2023/07/07 09:20:23;;;;;;;8.27;3.53;;;21.60;99.90;;;;;;5015104;28;20088;-58
2023/07/07 09:22:57;;;;;;;13.07;4.10;;;21.70;99.90;;;;;;5002001;28;20049;-58
2023/07/07 09:25:45;;;;;;;5.82;2.95;;;21.80;99.90;;;;;;5040544;28;20060;-58
2023/07/07 09:28:16;;;;;;;5.57;2.65;;;21.80;99.90;;;;;;5051108;28;20064;-58
2023/07/07 09:30:47;;;;;;;11.93;2.92;;;21.90;99.90;;;;;;5039275;28;20048;-59
2023/07/07 09:33:17;;;;;;;9.85;3.08;;;22.00;99.90;;;;;;5040584;28;20384;-58
2023/07/07 09:36:12;;;;;;;8.13;2.30;;;22.00;99.90;;;;;;5014535;28;20458;-58
2023/07/07 09:38:44;;;;;;;6.47;2.80;;;22.10;99.90;;;;;;5021910;28;20056;-61
2023/07/07 09:41:33;;;;;;;7.63;3.08;;;22.30;99.90;;;;;;5036593;28;20056;-58
2023/07/07 09:44:37;;;;;;;7.25;3.45;;;22.50;99.90;;;;;;5038549;28;20102;-58
2023/07/07 09:47:16;;;;;;;6.82;2.50;;;22.50;99.90;;;;;;5036509;28;20064;-57
2023/07/07 09:49:51;;;;;;;11.40;2.92;;;22.60;99.90;;;;;;5036052;28;20064;-58
2023/07/07 09:52:27;;;;;;;9.27;2.42;;;22.80;99.90;;;;;;5038341;28;20045;-58
2023/07/07 09:54:54;;;;;;;6.53;2.80;;;23.00;99.90;;;;;;5031292;28;20056;-58
2023/07/07 09:57:30;;;;;;;5.18;2.28;;;23.10;99.90;;;;;;5049015;28;20564;-57
2023/07/07 09:59:58;;;;;;;6.38;2.70;;;23.20;99.90;;;;;;5032214;28;20052;-59
2023/07/07 10:02:25;;;;;;;14.40;3.70;;;23.40;99.90;;;;;;5034751;28;20106;-58
2023/07/07 10:05:01;;;;;;;7.68;3.55;;;23.50;99.90;;;;;;5047372;28;20063;-59
2023/07/07 10:07:31;;;;;;;9.70;2.47;;;23.70;99.90;;;;;;5021620;28;20415;-58
2023/07/07 10:09:59;;;;;;;12.63;2.97;;;23.70;99.90;;;;;;5005845;28;20048;-57
2023/07/07 10:12:25;;;;;;;9.25;2.38;;;23.90;99.90;;;;;;5035552;28;20045;-57
2023/07/07 10:15:01;;;;;;;6.45;2.70;;;24.10;99.90;;;;;;5016062;28;20049;-57
2023/07/07 10:18:05;;;;;;;6.68;2.80;;;24.50;99.90;;;;;;5036615;28;20042;-57
2023/07/07 10:20:32;;;;;;;11.32;2.92;;;25.00;99.30;;;;;;5026580;28;20111;-59
2023/07/07 10:22:59;;;;;;;7.20;2.30;;;25.40;99.30;;;;;;5037184;28;20037;-57
2023/07/07 10:25:27;;;;;;;4.40;2.40;;;25.70;98.50;;;;;;5025681;28;20049;-60
2023/07/07 10:27:54;;;;;;;7.00;2.72;;;26.10;98.40;;;;;;5036772;28;20543;-60
2023/07/07 10:30:20;;;;;;;6.15;2.45;;;26.40;97.30;;;;;;5002206;28;20061;-60
2023/07/07 10:32:51;;;;;;;8.63;2.83;;;26.60;97.40;;;;;;5034844;28;20419;-60
2023/07/07 10:35:19;;;;;;;10.00;2.75;;;26.90;96.90;;;;;;5037848;28;20072;-60
2023/07/07 10:37:46;;;;;;;8.65;2.55;;;27.20;95.90;;;;;;5039860;28;20049;-59
2023/07/07 10:40:15;;;;;;;8.52;2.95;;;27.50;95.40;;;;;;5037658;28;20489;-59
2023/07/07 10:42:42;;;;;;;7.30;2.20;;;27.70;94.40;;;;;;4691174;28;10001145;-60
2023/07/07 10:45:09;;;;;;;9.30;2.38;;;27.90;94.40;;;;;;5039708;28;20045;-60
2023/07/07 10:47:36;;;;;;;7.03;2.30;;;28.10;93.40;;;;;;5022210;28;20041;-60
2023/07/07 10:50:09;;;;;;;10.00;2.88;;;28.20;92.80;;;;;;5041251;28;20045;-60
2023/07/07 10:52:45;;;;;;;5.85;2.40;;;28.40;92.20;;;;;;5035836;28;20045;-59
2023/07/07 10:55:40;;;;;;;6.50;2.95;;;28.50;91.00;;;;;;5037927;28;20083;-59
2023/07/07 10:58:23;;;;;;;7.18;3.08;;;28.60;90.40;;;;;;5028134;28;20044;-60
2023/07/07 11:00:56;;;;;;;7.07;2.45;;;28.20;90.30;;;;;;5039617;28;20496;-60
2023/07/07 11:03:26;;;;;;;;;;;27.80;90.30;;;;;;5031709;28;20726;-60
2023/07/07 11:06:19;;;;;;;5.22;2.60;;;27.30;88.40;;;;;;5026139;28;20011;-60
2023/07/07 11:08:58;;;;;;;10.95;3.30;;;27.00;89.70;;;;;;5021634;28;20085;-60
2023/07/07 11:11:34;;;;;;;7.07;2.70;;;26.70;88.40;;;;;;5037803;28;20052;-60
2023/07/07 11:14:25;;;;;;;5.53;3.15;;;26.60;90.80;;;;;;5029079;28;20052;-60
2023/07/07 11:17:09;;;;;;;9.60;3.30;;;26.50;90.70;;;;;;5020610;28;20048;-59
2023/07/07 11:19:41;;;;;;;8.60;3.20;;;26.40;90.50;;;;;;5027370;28;20076;-59
2023/07/07 11:22:14;;;;;;;6.43;2.95;;;26.40;90.20;;;;;;5018404;28;20049;-60
2023/07/07 11:24:48;;;;;;;6.65;3.38;;;26.30;90.90;;;;;;5041859;28;20050;-59
2023/07/07 11:27:31;;;;;;;6.22;3.10;;;26.40;90.90;;;;;;5045246;28;20049;-58
2023/07/07 11:30:11;;;;;;;5.03;3.40;;;26.30;91.10;;;;;;5045456;28;20098;-59
2023/07/07 11:32:41;;;;;;;8.25;3.33;;;26.30;90.30;;;;;;5023334;28;20045;-60
2023/07/07 11:35:18;;;;;;;4.50;3.10;;;26.30;89.90;;;;;;5050057;28;20487;-60
2023/07/07 11:37:55;;;;;;;7.05;3.60;;;26.30;89.60;;;;;;5008318;28;20717;-59
2023/07/07 11:40:47;;;;;;;12.30;3.58;;;26.30;90.40;;;;;;5023363;28;20059;-58
2023/07/07 11:43:35;;;;;;;5.05;3.42;;;26.40;88.40;;;;;;5030197;28;20437;-56
2023/07/07 11:46:08;;;;;;;7.47;3.45;;;26.40;88.80;;;;;;5031052;28;20057;-58
2023/07/07 11:48:40;;;;;;;6.72;3.30;;;26.30;88.50;;;;;;5033938;28;20045;-58
2023/07/07 11:51:27;;;;;;;5.88;3.67;;;26.30;88.70;;;;;;5024825;28;20132;-58
2023/07/07 11:54:12;;;;;;;6.10;3.53;;;26.50;88.80;;;;;;5011123;28;20045;-59
2023/07/07 11:56:46;;;;;;;8.85;3.25;;;26.50;89.90;;;;;;5024525;28;20072;-59
2023/07/07 11:59:44;;;;;;;8.68;4.03;;;26.60;89.20;;;;;;5020375;28;20053;-60
2023/07/07 12:02:26;;;;;;;7.68;3.55;;;26.60;87.50;;;;;;5015314;28;20408;-59
2023/07/07 12:04:54;;;;;;;8.23;3.90;;;26.90;87.10;;;;;;5017671;28;20144;-59
2023/07/07 12:07:38;;;;;;;8.15;4.18;;;26.80;87.40;;;;;;5024293;28;20061;-63
2023/07/07 12:10:26;;;;;;;6.32;3.67;;;26.90;85.90;;;;;;5033186;28;20100;-59
2023/07/07 12:13:02;;;;;;;6.38;3.88;;;27.00;83.90;;;;;;5035064;28;20049;-61
2023/07/07 12:15:47;;;;;;;11.60;4.15;;;27.10;85.80;;;;;;5010608;28;20045;-59
2023/07/07 12:18:32;;;;;;;7.82;4.25;;;27.00;85.30;;;;;;5035803;28;20754;-59
2023/07/07 12:21:07;;;;;;;6.55;4.20;;;27.10;82.70;;;;;;5020310;28;20084;-58
2023/07/07 12:23:37;;;;;;;4.00;3.05;;;27.10;84.00;;;;;;5014552;28;20548;-58
2023/07/07 12:26:14;;;;;;;8.60;4.22;;;27.10;85.40;;;;;;5025089;28;20084;-60
2023/07/07 12:28:43;;;;;;;7.07;3.72;;;27.40;83.00;;;;;;5017370;28;20050;-60
2023/07/07 12:31:10;;;;;;;6.60;3.85;;;27.50;82.50;;;;;;5004256;28;20947;-60
2023/07/07 12:33:40;;;;;;;9.40;3.72;;;27.50;82.40;;;;;;5017202;28;20041;-58
2023/07/07 12:36:08;;;;;;;7.18;3.85;;;27.50;80.30;;;;;;5034734;28;20051;-57
2023/07/07 12:38:35;;;;;;;8.10;4.15;;;27.50;81.80;;;;;;5003577;28;20463;-57
2023/07/07 12:41:12;;;;;;;10.70;3.92;;;27.70;80.10;;;;;;4998368;28;20053;-59
2023/07/07 12:43:49;;;;;;;11.43;3.75;;;27.60;79.20;;;;;;5022776;28;20053;-59
2023/07/07 12:46:28;;;;;;;15.48;4.32;;;27.40;78.70;;;;;;5020461;28;20083;-59
2023/07/07 12:48:57;;;;;;;6.68;4.00;;;27.40;77.40;;;;;;5024008;28;20041;-57
2023/07/07 12:51:27;;;;;;;6.28;4.63;;;27.40;79.40;;;;;;5026338;28;20071;-59
2023/07/07 12:53:54;;;;;;;7.95;4.45;;;27.30;78.50;;;;;;5015164;28;20271;-59
2023/07/07 12:56:23;;;;;;;7.20;3.88;;;27.40;78.60;;;;;;5035099;28;20049;-59
2023/07/07 12:58:55;;;;;;;19.60;5.65;;;27.60;79.50;;;;;;5029795;28;20561;-59
2023/07/07 13:01:25;;;;;;;8.82;4.18;;;27.60;78.40;;;;;;5038576;28;20053;-57
2023/07/07 13:04:07;;;;;;;8.02;3.67;;;27.70;77.70;;;;;;5038288;28;20082;-59
2023/07/07 13:06:36;;;;;;;6.33;4.30;;;27.70;75.10;;;;;;5033890;28;20045;-59